KAUS/AUS METAR and TAF weather

Enter ICAO airport designator
Station Type Date Time Source
KAUS METAR 2019/02/23 17:53 UTC NOAA

KAUS 231753Z 29020G29KT 10SM FEW120 BKN250 22/M04 A2995 RMK AO2 PK WND 27030/1729 SLP138 60000 T02171044 10222 20139 51002


Station Type Date Time Source
KAUS Decoded METAR 2019/02/23 17:53 UTC NOAA

AUSTIN-BERGSTROM INTERNATIONAL AIRPORT, TX, United States (KAUS) 30-11N 097-41W 172M
Feb 23, 2019 - 12:53 PM EST / 2019.02.23 1753 UTC
Wind: from the WNW (290 degrees) at 23 MPH (20 KT) gusting to 33 MPH (29 KT):0
Visibility: 10 mile(s):0
Sky conditions: mostly cloudy
Temperature: 71.1 F (21.7 C)
Dew Point: 24.1 F (-4.4 C)
Relative Humidity: 16%
Pressure (altimeter): 29.95 in. Hg (1014 hPa)
Pressure tendency: 0.01 inches (0.2 hPa) higher than three hours ago
ob: KAUS 231753Z 29020G29KT 10SM FEW120 BKN250 22/M04 A2995 RMK AO2 PK WND 27030/1729 SLP138 60000 T02171044 10222 20139 51002
cycle: 18

Station Type Date Time Source
KAUS TAF 2019/02/23 18:27 UTC NOAA

TAF KAUS 231725Z 2318/2424 30018G28KT P6SM BKN250
FM232300 26014KT P6SM BKN250
FM240000 29006KT P6SM SCT250
FM240700 33008KT P6SM SCT250
FM241500 02011KT P6SM FEW250


Example: see airport list